sensor_id;sensor_type;location;lat;lon;timestamp;pressure;altitude;pressure_sealevel;temperature;humidity
49423;BME280;36998;51.974;20.150;2022-09-06T00:02:23;101078.16;;;11.31;58.68
49423;BME280;36998;51.974;20.150;2022-09-06T00:04:49;101073.06;;;11.28;58.54
49423;BME280;36998;51.974;20.150;2022-09-06T00:07:15;101071.81;;;11.22;58.63
49423;BME280;36998;51.974;20.150;2022-09-06T00:09:41;101071.94;;;11.21;58.73
49423;BME280;36998;51.974;20.150;2022-09-06T00:12:07;101072.94;;;11.20;58.63
49423;BME280;36998;51.974;20.150;2022-09-06T00:14:32;101069.53;;;11.18;58.83
49423;BME280;36998;51.974;20.150;2022-09-06T00:16:58;101073.41;;;11.15;58.81
49423;BME280;36998;51.974;20.150;2022-09-06T00:19:23;101071.66;;;11.14;58.57
49423;BME280;36998;51.974;20.150;2022-09-06T00:21:49;101074.84;;;11.10;58.75
49423;BME280;36998;51.974;20.150;2022-09-06T00:24:14;101074.97;;;11.08;59.02
49423;BME280;36998;51.974;20.150;2022-09-06T00:26:40;101071.00;;;11.02;58.69
49423;BME280;36998;51.974;20.150;2022-09-06T00:29:05;101070.31;;;11.00;59.04
49423;BME280;36998;51.974;20.150;2022-09-06T00:31:31;101071.59;;;10.96;59.17
49423;BME280;36998;51.974;20.150;2022-09-06T00:33:57;101071.03;;;10.93;59.11
49423;BME280;36998;51.974;20.150;2022-09-06T00:36:23;101077.44;;;10.92;59.25
49423;BME280;36998;51.974;20.150;2022-09-06T00:38:48;101066.78;;;10.90;59.66
49423;BME280;36998;51.974;20.150;2022-09-06T00:41:15;101062.66;;;10.86;59.62
49423;BME280;36998;51.974;20.150;2022-09-06T00:43:41;101073.59;;;10.85;59.69
49423;BME280;36998;51.974;20.150;2022-09-06T00:46:09;101074.75;;;10.82;59.40
49423;BME280;36998;51.974;20.150;2022-09-06T00:48:38;101072.50;;;10.77;59.53
49423;BME280;36998;51.974;20.150;2022-09-06T00:51:07;101067.09;;;10.77;59.72
49423;BME280;36998;51.974;20.150;2022-09-06T00:53:35;101074.34;;;10.77;59.99
49423;BME280;36998;51.974;20.150;2022-09-06T00:56:01;101065.69;;;10.73;60.12
49423;BME280;36998;51.974;20.150;2022-09-06T00:58:27;101068.38;;;10.73;59.90
49423;BME280;36998;51.974;20.150;2022-09-06T01:00:53;101073.22;;;10.70;59.94
49423;BME280;36998;51.974;20.150;2022-09-06T01:03:21;101069.97;;;10.66;59.98
49423;BME280;36998;51.974;20.150;2022-09-06T01:12:03;101069.09;;;10.56;60.32
49423;BME280;36998;51.974;20.150;2022-09-06T01:14:50;101064.56;;;10.57;60.33
49423;BME280;36998;51.974;20.150;2022-09-06T01:23:25;101059.75;;;10.50;60.13
49423;BME280;36998;51.974;20.150;2022-09-06T01:28:56;101072.25;;;10.42;60.16
49423;BME280;36998;51.974;20.150;2022-09-06T01:31:43;101068.69;;;10.41;60.24
49423;BME280;36998;51.974;20.150;2022-09-06T01:34:22;101066.00;;;10.41;60.40
49423;BME280;36998;51.974;20.150;2022-09-06T01:37:02;101063.88;;;10.35;60.51
49423;BME280;36998;51.974;20.150;2022-09-06T01:39:31;101055.22;;;10.31;60.34
49423;BME280;36998;51.974;20.150;2022-09-06T01:42:01;101068.72;;;10.31;60.74
49423;BME280;36998;51.974;20.150;2022-09-06T01:44:29;101064.16;;;10.32;60.67
49423;BME280;36998;51.974;20.150;2022-09-06T01:47:28;101061.63;;;10.30;60.74
49423;BME280;36998;51.974;20.150;2022-09-06T01:50:18;101060.03;;;10.28;60.52
49423;BME280;36998;51.974;20.150;2022-09-06T01:55:41;101056.88;;;10.23;60.91
49423;BME280;36998;51.974;20.150;2022-09-06T02:01:01;101051.63;;;10.21;61.17
49423;BME280;36998;51.974;20.150;2022-09-06T02:03:37;101052.63;;;10.20;61.28
49423;BME280;36998;51.974;20.150;2022-09-06T02:06:12;101052.19;;;10.15;61.39
49423;BME280;36998;51.974;20.150;2022-09-06T02:09:02;101053.03;;;10.16;61.30
49423;BME280;36998;51.974;20.150;2022-09-06T02:11:33;101060.44;;;10.14;61.36
49423;BME280;36998;51.974;20.150;2022-09-06T02:14:07;101070.63;;;10.10;61.11
49423;BME280;36998;51.974;20.150;2022-09-06T02:16:38;101061.13;;;10.06;61.41
49423;BME280;36998;51.974;20.150;2022-09-06T02:19:14;101071.94;;;10.06;61.50
49423;BME280;36998;51.974;20.150;2022-09-06T02:21:44;101063.97;;;10.04;61.37
49423;BME280;36998;51.974;20.150;2022-09-06T02:24:18;101072.09;;;10.04;61.44
49423;BME280;36998;51.974;20.150;2022-09-06T02:26:46;101070.78;;;9.99;61.57
49423;BME280;36998;51.974;20.150;2022-09-06T02:29:12;101069.09;;;9.98;61.74
49423;BME280;36998;51.974;20.150;2022-09-06T02:31:43;101068.81;;;10.01;61.74
49423;BME280;36998;51.974;20.150;2022-09-06T02:34:13;101058.28;;;9.98;61.93
49423;BME280;36998;51.974;20.150;2022-09-06T02:36:39;101058.72;;;10.13;60.54
49423;BME280;36998;51.974;20.150;2022-09-06T02:39:04;101050.59;;;9.93;61.52
49423;BME280;36998;51.974;20.150;2022-09-06T02:41:30;101053.75;;;9.89;61.70
49423;BME280;36998;51.974;20.150;2022-09-06T02:43:56;101058.97;;;9.90;61.71
49423;BME280;36998;51.974;20.150;2022-09-06T02:46:22;101057.28;;;9.89;61.91
49423;BME280;36998;51.974;20.150;2022-09-06T02:48:49;101050.31;;;9.87;62.14
49423;BME280;36998;51.974;20.150;2022-09-06T02:51:15;101043.94;;;9.88;61.92
49423;BME280;36998;51.974;20.150;2022-09-06T02:53:41;101046.78;;;9.86;61.99
49423;BME280;36998;51.974;20.150;2022-09-06T02:56:07;101051.44;;;9.84;62.33
49423;BME280;36998;51.974;20.150;2022-09-06T02:58:33;101047.88;;;9.83;62.33
49423;BME280;36998;51.974;20.150;2022-09-06T03:00:58;101046.03;;;9.84;62.13
49423;BME280;36998;51.974;20.150;2022-09-06T03:03:24;101043.66;;;9.81;62.34
49423;BME280;36998;51.974;20.150;2022-09-06T03:05:51;101041.06;;;9.79;62.23
49423;BME280;36998;51.974;20.150;2022-09-06T03:08:18;101046.34;;;9.81;62.35
49423;BME280;36998;51.974;20.150;2022-09-06T03:10:49;101050.88;;;9.80;62.36
49423;BME280;36998;51.974;20.150;2022-09-06T03:13:15;101044.78;;;9.78;62.38
49423;BME280;36998;51.974;20.150;2022-09-06T03:15:40;101056.53;;;9.77;62.31
49423;BME280;36998;51.974;20.150;2022-09-06T03:18:06;101054.00;;;9.76;62.37
49423;BME280;36998;51.974;20.150;2022-09-06T03:20:31;101050.56;;;9.74;62.48
49423;BME280;36998;51.974;20.150;2022-09-06T03:22:57;101057.97;;;9.72;62.32
49423;BME280;36998;51.974;20.150;2022-09-06T03:25:22;101052.56;;;9.72;62.17
49423;BME280;36998;51.974;20.150;2022-09-06T03:27:49;101043.75;;;9.70;62.49
49423;BME280;36998;51.974;20.150;2022-09-06T03:30:14;101044.88;;;9.67;62.45
49423;BME280;36998;51.974;20.150;2022-09-06T03:32:40;101041.34;;;9.67;62.47
49423;BME280;36998;51.974;20.150;2022-09-06T03:35:05;101040.91;;;9.61;62.61
49423;BME280;36998;51.974;20.150;2022-09-06T03:37:32;101051.81;;;9.60;62.31
49423;BME280;36998;51.974;20.150;2022-09-06T03:39:57;101049.28;;;9.58;62.27
49423;BME280;36998;51.974;20.150;2022-09-06T03:42:23;101057.50;;;9.57;62.29
49423;BME280;36998;51.974;20.150;2022-09-06T03:44:51;101050.69;;;9.53;62.38
49423;BME280;36998;51.974;20.150;2022-09-06T03:47:18;101041.75;;;9.52;62.61
49423;BME280;36998;51.974;20.150;2022-09-06T03:49:44;101040.75;;;9.53;62.34
49423;BME280;36998;51.974;20.150;2022-09-06T03:52:09;101039.03;;;9.52;62.44
49423;BME280;36998;51.974;20.150;2022-09-06T03:54:35;101047.41;;;9.49;62.47
49423;BME280;36998;51.974;20.150;2022-09-06T03:57:01;101036.91;;;9.46;62.42
49423;BME280;36998;51.974;20.150;2022-09-06T03:59:26;101041.44;;;9.46;62.63
49423;BME280;36998;51.974;20.150;2022-09-06T04:01:52;101038.59;;;9.47;62.82
49423;BME280;36998;51.974;20.150;2022-09-06T04:04:17;101040.59;;;9.45;62.53
49423;BME280;36998;51.974;20.150;2022-09-06T04:06:42;101036.91;;;9.46;62.57
49423;BME280;36998;51.974;20.150;2022-09-06T04:09:08;101032.34;;;9.47;62.57
49423;BME280;36998;51.974;20.150;2022-09-06T04:11:33;101039.31;;;9.49;62.54
49423;BME280;36998;51.974;20.150;2022-09-06T04:13:59;101040.00;;;9.51;62.78
49423;BME280;36998;51.974;20.150;2022-09-06T04:16:24;101035.50;;;9.52;62.75
49423;BME280;36998;51.974;20.150;2022-09-06T04:18:50;101039.03;;;9.52;62.64
49423;BME280;36998;51.974;20.150;2022-09-06T04:21:16;101039.91;;;9.53;62.67
49423;BME280;36998;51.974;20.150;2022-09-06T04:23:41;101039.63;;;9.56;62.91
49423;BME280;36998;51.974;20.150;2022-09-06T04:26:07;101038.22;;;9.61;62.72
49423;BME280;36998;51.974;20.150;2022-09-06T04:28:32;101043.19;;;9.66;62.70
49423;BME280;36998;51.974;20.150;2022-09-06T04:30:59;101045.59;;;9.69;63.12
49423;BME280;36998;51.974;20.150;2022-09-06T04:33:26;101054.28;;;9.73;62.99
49423;BME280;36998;51.974;20.150;2022-09-06T04:35:57;101057.41;;;9.78;63.07
49423;BME280;36998;51.974;20.150;2022-09-06T04:38:27;101053.56;;;9.80;62.89
49423;BME280;36998;51.974;20.150;2022-09-06T04:40:53;101052.44;;;9.83;62.94
49423;BME280;36998;51.974;20.150;2022-09-06T04:43:22;101052.03;;;9.88;62.61
49423;BME280;36998;51.974;20.150;2022-09-06T04:45:48;101049.91;;;9.91;62.78
49423;BME280;36998;51.974;20.150;2022-09-06T04:48:14;101050.19;;;9.98;62.57
49423;BME280;36998;51.974;20.150;2022-09-06T04:50:39;101044.53;;;10.01;62.55
49423;BME280;36998;51.974;20.150;2022-09-06T04:53:05;101051.19;;;10.06;62.51
49423;BME280;36998;51.974;20.150;2022-09-06T04:55:31;101038.13;;;10.12;62.35
49423;BME280;36998;51.974;20.150;2022-09-06T04:57:58;101046.50;;;10.18;62.39
49423;BME280;36998;51.974;20.150;2022-09-06T05:00:27;101040.41;;;10.26;62.31
49423;BME280;36998;51.974;20.150;2022-09-06T05:02:53;101040.00;;;10.30;61.90
49423;BME280;36998;51.974;20.150;2022-09-06T05:05:18;101043.69;;;10.39;61.87
49423;BME280;36998;51.974;20.150;2022-09-06T05:07:44;101037.56;;;10.47;61.98
49423;BME280;36998;51.974;20.150;2022-09-06T05:10:09;101044.09;;;10.54;61.80
49423;BME280;36998;51.974;20.150;2022-09-06T05:12:35;101042.53;;;10.61;61.55
49423;BME280;36998;51.974;20.150;2022-09-06T05:15:00;101046.06;;;10.71;61.33
49423;BME280;36998;51.974;20.150;2022-09-06T05:17:26;101038.22;;;10.78;61.28
49423;BME280;36998;51.974;20.150;2022-09-06T05:19:51;101031.78;;;10.89;61.06
49423;BME280;36998;51.974;20.150;2022-09-06T05:22:17;101039.28;;;10.95;60.98
49423;BME280;36998;51.974;20.150;2022-09-06T05:24:42;101032.31;;;11.02;60.53
49423;BME280;36998;51.974;20.150;2022-09-06T05:27:08;101041.09;;;11.14;60.44
49423;BME280;36998;51.974;20.150;2022-09-06T05:29:33;101034.06;;;11.21;60.13
49423;BME280;36998;51.974;20.150;2022-09-06T05:31:59;101035.03;;;11.30;59.80
49423;BME280;36998;51.974;20.150;2022-09-06T05:34:24;101039.41;;;11.40;59.50
49423;BME280;36998;51.974;20.150;2022-09-06T05:36:49;101037.34;;;11.52;59.28
49423;BME280;36998;51.974;20.150;2022-09-06T05:39:15;101039.44;;;11.58;58.89
49423;BME280;36998;51.974;20.150;2022-09-06T05:41:43;101036.69;;;11.68;59.02
49423;BME280;36998;51.974;20.150;2022-09-06T05:44:08;101041.31;;;11.76;58.85
49423;BME280;36998;51.974;20.150;2022-09-06T05:46:41;101044.72;;;11.87;58.46
49423;BME280;36998;51.974;20.150;2022-09-06T05:49:06;101044.78;;;11.95;58.03
49423;BME280;36998;51.974;20.150;2022-09-06T05:51:32;101050.00;;;12.07;58.01
49423;BME280;36998;51.974;20.150;2022-09-06T05:53:58;101047.88;;;12.18;57.73
49423;BME280;36998;51.974;20.150;2022-09-06T05:56:23;101047.66;;;12.30;57.55
49423;BME280;36998;51.974;20.150;2022-09-06T05:58:49;101049.97;;;12.43;57.47
49423;BME280;36998;51.974;20.150;2022-09-06T06:01:15;101057.13;;;12.52;57.36
49423;BME280;36998;51.974;20.150;2022-09-06T06:03:42;101057.75;;;12.63;56.93
49423;BME280;36998;51.974;20.150;2022-09-06T06:06:08;101060.91;;;12.77;57.12
49423;BME280;36998;51.974;20.150;2022-09-06T06:08:34;101052.66;;;12.86;56.91
49423;BME280;36998;51.974;20.150;2022-09-06T06:11:00;101043.41;;;12.97;56.63
49423;BME280;36998;51.974;20.150;2022-09-06T06:13:27;101046.69;;;13.09;56.48
49423;BME280;36998;51.974;20.150;2022-09-06T06:15:54;101047.94;;;13.23;56.21
49423;BME280;36998;51.974;20.150;2022-09-06T06:18:20;101047.69;;;13.34;56.17
49423;BME280;36998;51.974;20.150;2022-09-06T06:20:47;101048.44;;;13.44;55.92
49423;BME280;36998;51.974;20.150;2022-09-06T06:23:15;101048.31;;;13.54;56.09
49423;BME280;36998;51.974;20.150;2022-09-06T06:25:41;101044.56;;;13.63;55.33
49423;BME280;36998;51.974;20.150;2022-09-06T06:28:06;101051.59;;;13.74;55.21
49423;BME280;36998;51.974;20.150;2022-09-06T06:30:31;101055.84;;;13.85;54.84
49423;BME280;36998;51.974;20.150;2022-09-06T06:32:57;101053.00;;;13.94;54.92
49423;BME280;36998;51.974;20.150;2022-09-06T06:35:23;101058.97;;;14.06;54.65
49423;BME280;36998;51.974;20.150;2022-09-06T06:37:49;101061.16;;;14.19;53.52
49423;BME280;36998;51.974;20.150;2022-09-06T06:40:15;101066.44;;;14.28;53.04
49423;BME280;36998;51.974;20.150;2022-09-06T06:42:40;101057.97;;;14.40;53.40
49423;BME280;36998;51.974;20.150;2022-09-06T06:45:06;101064.25;;;14.48;52.49
49423;BME280;36998;51.974;20.150;2022-09-06T06:47:31;101050.69;;;14.57;52.21
49423;BME280;36998;51.974;20.150;2022-09-06T06:49:57;101050.34;;;14.68;52.02
49423;BME280;36998;51.974;20.150;2022-09-06T06:52:22;101051.03;;;14.78;51.13
49423;BME280;36998;51.974;20.150;2022-09-06T06:54:48;101056.44;;;14.86;50.94
49423;BME280;36998;51.974;20.150;2022-09-06T06:57:14;101043.69;;;14.95;50.25
49423;BME280;36998;51.974;20.150;2022-09-06T06:59:39;101038.22;;;15.03;50.51
49423;BME280;36998;51.974;20.150;2022-09-06T07:02:05;101043.31;;;15.14;50.18
49423;BME280;36998;51.974;20.150;2022-09-06T07:04:31;101049.19;;;15.26;49.75
49423;BME280;36998;51.974;20.150;2022-09-06T07:06:57;101046.13;;;15.37;49.59
49423;BME280;36998;51.974;20.150;2022-09-06T07:09:22;101043.84;;;15.49;49.02
49423;BME280;36998;51.974;20.150;2022-09-06T07:11:48;101042.97;;;15.57;48.90
49423;BME280;36998;51.974;20.150;2022-09-06T07:14:18;101048.38;;;15.65;48.44
49423;BME280;36998;51.974;20.150;2022-09-06T07:16:44;101050.91;;;15.75;48.10
49423;BME280;36998;51.974;20.150;2022-09-06T07:19:10;101057.16;;;15.83;47.60
49423;BME280;36998;51.974;20.150;2022-09-06T07:21:36;101055.22;;;15.92;47.50
49423;BME280;36998;51.974;20.150;2022-09-06T07:24:03;101054.50;;;15.98;47.16
49423;BME280;36998;51.974;20.150;2022-09-06T07:26:29;101067.06;;;16.07;47.19
49423;BME280;36998;51.974;20.150;2022-09-06T07:28:57;101064.94;;;16.18;46.82
49423;BME280;36998;51.974;20.150;2022-09-06T07:31:23;101067.25;;;16.29;46.06
49423;BME280;36998;51.974;20.150;2022-09-06T07:33:49;101069.44;;;16.33;46.25
49423;BME280;36998;51.974;20.150;2022-09-06T07:36:14;101071.22;;;16.41;46.29
49423;BME280;36998;51.974;20.150;2022-09-06T07:38:40;101072.88;;;16.50;46.06
49423;BME280;36998;51.974;20.150;2022-09-06T07:41:08;101068.38;;;16.57;45.63
49423;BME280;36998;51.974;20.150;2022-09-06T07:43:34;101071.72;;;16.68;45.39
49423;BME280;36998;51.974;20.150;2022-09-06T07:46:07;101065.50;;;16.74;45.49
49423;BME280;36998;51.974;20.150;2022-09-06T07:48:34;101062.91;;;16.80;45.44
49423;BME280;36998;51.974;20.150;2022-09-06T07:51:10;101062.00;;;16.88;45.54
49423;BME280;36998;51.974;20.150;2022-09-06T07:53:39;101061.06;;;16.96;44.74
49423;BME280;36998;51.974;20.150;2022-09-06T07:56:07;101059.28;;;17.03;44.12
49423;BME280;36998;51.974;20.150;2022-09-06T07:58:33;101068.25;;;17.12;44.33
49423;BME280;36998;51.974;20.150;2022-09-06T08:01:36;101062.13;;;17.24;44.74
49423;BME280;36998;51.974;20.150;2022-09-06T08:04:06;101056.38;;;17.34;44.55
49423;BME280;36998;51.974;20.150;2022-09-06T08:06:38;101061.09;;;17.40;43.71
49423;BME280;36998;51.974;20.150;2022-09-06T08:09:06;101059.31;;;17.47;43.30
49423;BME280;36998;51.974;20.150;2022-09-06T08:11:33;101064.00;;;17.53;43.46
49423;BME280;36998;51.974;20.150;2022-09-06T08:14:00;101055.91;;;17.60;42.91
49423;BME280;36998;51.974;20.150;2022-09-06T08:16:28;101057.50;;;17.69;43.30
49423;BME280;36998;51.974;20.150;2022-09-06T08:18:56;101055.84;;;17.75;42.68
49423;BME280;36998;51.974;20.150;2022-09-06T08:21:23;101054.09;;;17.82;42.38
49423;BME280;36998;51.974;20.150;2022-09-06T08:23:53;101051.63;;;17.87;42.78
49423;BME280;36998;51.974;20.150;2022-09-06T08:26:20;101052.53;;;17.94;42.83
49423;BME280;36998;51.974;20.150;2022-09-06T08:28:47;101050.56;;;18.03;42.97
49423;BME280;36998;51.974;20.150;2022-09-06T08:31:15;101046.22;;;18.09;42.74
49423;BME280;36998;51.974;20.150;2022-09-06T08:33:41;101043.53;;;18.15;41.99
49423;BME280;36998;51.974;20.150;2022-09-06T08:36:08;101046.53;;;18.20;41.62
49423;BME280;36998;51.974;20.150;2022-09-06T08:38:34;101038.59;;;18.25;41.92
49423;BME280;36998;51.974;20.150;2022-09-06T08:41:10;101044.13;;;18.32;41.56
49423;BME280;36998;51.974;20.150;2022-09-06T08:43:37;101041.63;;;18.37;41.26
49423;BME280;36998;51.974;20.150;2022-09-06T08:46:05;101033.03;;;18.40;41.16
49423;BME280;36998;51.974;20.150;2022-09-06T08:48:34;101020.84;;;18.43;41.00
49423;BME280;36998;51.974;20.150;2022-09-06T08:53:56;101019.03;;;18.50;40.86
49423;BME280;36998;51.974;20.150;2022-09-06T08:56:27;101021.19;;;18.55;40.93
49423;BME280;36998;51.974;20.150;2022-09-06T08:59:06;101019.53;;;18.60;40.67
49423;BME280;36998;51.974;20.150;2022-09-06T09:01:46;101021.28;;;18.68;40.59
49423;BME280;36998;51.974;20.150;2022-09-06T09:04:20;101019.66;;;18.74;39.80
49423;BME280;36998;51.974;20.150;2022-09-06T09:06:51;101021.38;;;18.75;39.71
49423;BME280;36998;51.974;20.150;2022-09-06T09:09:20;101018.03;;;18.79;39.82
49423;BME280;36998;51.974;20.150;2022-09-06T09:11:49;101020.19;;;18.84;39.88
49423;BME280;36998;51.974;20.150;2022-09-06T09:16:40;101022.16;;;18.97;39.93
49423;BME280;36998;51.974;20.150;2022-09-06T09:19:06;101017.97;;;19.01;39.44
49423;BME280;36998;51.974;20.150;2022-09-06T09:21:36;101014.84;;;19.04;39.33
49423;BME280;36998;51.974;20.150;2022-09-06T09:24:08;101013.16;;;19.09;39.44
49423;BME280;36998;51.974;20.150;2022-09-06T09:26:46;101005.59;;;19.11;39.49
49423;BME280;36998;51.974;20.150;2022-09-06T09:29:14;101004.59;;;19.19;39.94
49423;BME280;36998;51.974;20.150;2022-09-06T09:31:51;101002.94;;;19.25;39.35
49423;BME280;36998;51.974;20.150;2022-09-06T09:34:35;101002.34;;;19.29;38.73
49423;BME280;36998;51.974;20.150;2022-09-06T09:37:20;101006.16;;;19.35;39.34
49423;BME280;36998;51.974;20.150;2022-09-06T09:39:47;100995.44;;;19.40;38.99
49423;BME280;36998;51.974;20.150;2022-09-06T09:42:35;100985.75;;;19.44;39.04
49423;BME280;36998;51.974;20.150;2022-09-06T09:45:02;100990.59;;;19.49;38.61
49423;BME280;36998;51.974;20.150;2022-09-06T09:47:32;100983.88;;;19.51;38.71
49423;BME280;36998;51.974;20.150;2022-09-06T09:49:58;100983.06;;;19.57;38.47
49423;BME280;36998;51.974;20.150;2022-09-06T09:52:29;100971.69;;;19.60;38.30
49423;BME280;36998;51.974;20.150;2022-09-06T09:55:04;100981.03;;;19.66;38.52
49423;BME280;36998;51.974;20.150;2022-09-06T09:57:43;100978.31;;;19.73;38.73
49423;BME280;36998;51.974;20.150;2022-09-06T10:00:10;100970.09;;;19.79;38.77
49423;BME280;36998;51.974;20.150;2022-09-06T10:02:39;100967.13;;;19.81;38.83
49423;BME280;36998;51.974;20.150;2022-09-06T10:05:08;100961.66;;;19.87;38.91
49423;BME280;36998;51.974;20.150;2022-09-06T10:07:46;100954.31;;;19.95;38.77
49423;BME280;36998;51.974;20.150;2022-09-06T10:10:24;100946.28;;;20.00;38.45
49423;BME280;36998;51.974;20.150;2022-09-06T10:13:06;100942.72;;;20.06;38.15
49423;BME280;36998;51.974;20.150;2022-09-06T10:15:34;100949.28;;;20.11;37.82
49423;BME280;36998;51.974;20.150;2022-09-06T10:18:00;100951.38;;;20.16;37.97
49423;BME280;36998;51.974;20.150;2022-09-06T10:20:36;100947.38;;;20.19;38.03
49423;BME280;36998;51.974;20.150;2022-09-06T10:25:46;100948.03;;;20.27;37.58
49423;BME280;36998;51.974;20.150;2022-09-06T10:28:37;100935.56;;;20.31;37.56
49423;BME280;36998;51.974;20.150;2022-09-06T10:34:13;100929.66;;;20.41;37.59
49423;BME280;36998;51.974;20.150;2022-09-06T10:37:00;100932.59;;;20.46;36.91
49423;BME280;36998;51.974;20.150;2022-09-06T10:39:48;100922.88;;;20.50;36.74
49423;BME280;36998;51.974;20.150;2022-09-06T10:45:27;100922.50;;;20.60;36.69
49423;BME280;36998;51.974;20.150;2022-09-06T10:48:09;100916.31;;;20.71;36.41
49423;BME280;36998;51.974;20.150;2022-09-06T10:50:41;100925.19;;;20.80;35.85
49423;BME280;36998;51.974;20.150;2022-09-06T10:53:33;100921.75;;;20.91;35.79
49423;BME280;36998;51.974;20.150;2022-09-06T10:56:12;100919.44;;;20.95;35.76
49423;BME280;36998;51.974;20.150;2022-09-06T10:58:48;100926.00;;;20.94;35.33
49423;BME280;36998;51.974;20.150;2022-09-06T11:01:26;100919.38;;;21.08;36.06
49423;BME280;36998;51.974;20.150;2022-09-06T11:03:56;100910.44;;;21.26;35.09
49423;BME280;36998;51.974;20.150;2022-09-06T11:06:28;100914.19;;;21.32;34.70
49423;BME280;36998;51.974;20.150;2022-09-06T11:09:14;100914.63;;;21.28;34.79
49423;BME280;36998;51.974;20.150;2022-09-06T11:12:04;100904.50;;;21.29;34.40
49423;BME280;36998;51.974;20.150;2022-09-06T11:14:32;100900.69;;;21.37;34.62
49423;BME280;36998;51.974;20.150;2022-09-06T11:17:03;100897.44;;;21.53;34.29
49423;BME280;36998;51.974;20.150;2022-09-06T11:19:39;100891.16;;;21.71;34.69
49423;BME280;36998;51.974;20.150;2022-09-06T11:22:30;100894.78;;;21.96;34.50
49423;BME280;36998;51.974;20.150;2022-09-06T11:25:31;100894.25;;;22.13;33.43
49423;BME280;36998;51.974;20.150;2022-09-06T11:28:07;100894.53;;;22.30;33.11
49423;BME280;36998;51.974;20.150;2022-09-06T11:30:34;100892.41;;;22.57;32.85
49423;BME280;36998;51.974;20.150;2022-09-06T11:33:08;100883.06;;;23.13;32.19
49423;BME280;36998;51.974;20.150;2022-09-06T11:35:35;100896.66;;;24.52;30.38
49423;BME280;36998;51.974;20.150;2022-09-06T11:38:07;100876.44;;;27.35;27.36
49423;BME280;36998;51.974;20.150;2022-09-06T11:40:43;100864.00;;;30.77;22.96
49423;BME280;36998;51.974;20.150;2022-09-06T11:43:13;100859.63;;;29.69;23.64
49423;BME280;36998;51.974;20.150;2022-09-06T11:45:40;100863.88;;;28.45;26.40
49423;BME280;36998;51.974;20.150;2022-09-06T11:48:29;100863.53;;;27.23;26.72
49423;BME280;36998;51.974;20.150;2022-09-06T11:50:59;100853.53;;;29.97;23.59
49423;BME280;36998;51.974;20.150;2022-09-06T11:56:33;100831.00;;;39.93;14.54
49423;BME280;36998;51.974;20.150;2022-09-06T12:02:32;100812.59;;;47.00;10.49
49423;BME280;36998;51.974;20.150;2022-09-06T12:07:25;100807.13;;;51.68;6.85
49423;BME280;36998;51.974;20.150;2022-09-06T12:09:51;100813.53;;;52.57;6.44
49423;BME280;36998;51.974;20.150;2022-09-06T12:12:40;100804.28;;;53.85;6.12
49423;BME280;36998;51.974;20.150;2022-09-06T12:15:28;100811.22;;;50.64;7.27
49423;BME280;36998;51.974;20.150;2022-09-06T12:17:55;100810.03;;;45.95;9.29
49423;BME280;36998;51.974;20.150;2022-09-06T12:21:00;100808.19;;;47.24;8.60
49423;BME280;36998;51.974;20.150;2022-09-06T12:23:43;100795.00;;;48.32;7.71
49423;BME280;36998;51.974;20.150;2022-09-06T12:26:10;100807.16;;;50.06;6.95
49423;BME280;36998;51.974;20.150;2022-09-06T12:31:33;100802.91;;;52.97;5.68
49423;BME280;36998;51.974;20.150;2022-09-06T12:34:27;100800.47;;;53.72;5.11
49423;BME280;36998;51.974;20.150;2022-09-06T12:36:59;100804.38;;;56.02;4.36
49423;BME280;36998;51.974;20.150;2022-09-06T12:39:26;100801.94;;;56.13;3.86
49423;BME280;36998;51.974;20.150;2022-09-06T12:41:55;100794.91;;;54.63;4.64
49423;BME280;36998;51.974;20.150;2022-09-06T12:44:28;100789.22;;;55.17;4.29
49423;BME280;36998;51.974;20.150;2022-09-06T12:47:00;100786.19;;;56.62;3.49
49423;BME280;36998;51.974;20.150;2022-09-06T12:49:26;100784.97;;;56.94;3.37
49423;BME280;36998;51.974;20.150;2022-09-06T12:52:04;100780.53;;;57.86;3.46
49423;BME280;36998;51.974;20.150;2022-09-06T12:54:30;100781.19;;;58.68;2.96
49423;BME280;36998;51.974;20.150;2022-09-06T12:57:12;100782.44;;;56.96;3.75
49423;BME280;36998;51.974;20.150;2022-09-06T12:59:46;100775.06;;;53.27;4.86
49423;BME280;36998;51.974;20.150;2022-09-06T13:02:15;100772.72;;;53.22;4.84
49423;BME280;36998;51.974;20.150;2022-09-06T13:04:50;100777.75;;;48.99;6.30
49423;BME280;36998;51.974;20.150;2022-09-06T13:07:19;100768.81;;;48.04;7.22
49423;BME280;36998;51.974;20.150;2022-09-06T13:09:47;100766.25;;;47.56;7.09
49423;BME280;36998;51.974;20.150;2022-09-06T13:14:56;100760.53;;;48.99;6.72
49423;BME280;36998;51.974;20.150;2022-09-06T13:17:28;100754.66;;;51.22;5.74
49423;BME280;36998;51.974;20.150;2022-09-06T13:19:55;100755.59;;;51.16;5.27
49423;BME280;36998;51.974;20.150;2022-09-06T13:22:45;100750.00;;;52.40;4.57
49423;BME280;36998;51.974;20.150;2022-09-06T13:27:45;100747.81;;;52.88;4.71
49423;BME280;36998;51.974;20.150;2022-09-06T13:30:35;100748.94;;;53.34;4.38
49423;BME280;36998;51.974;20.150;2022-09-06T13:33:02;100748.88;;;52.34;4.92
49423;BME280;36998;51.974;20.150;2022-09-06T13:35:30;100734.38;;;52.14;4.89
49423;BME280;36998;51.974;20.150;2022-09-06T13:38:32;100735.66;;;51.32;5.25
49423;BME280;36998;51.974;20.150;2022-09-06T13:40:58;100735.03;;;51.48;4.98
49423;BME280;36998;51.974;20.150;2022-09-06T13:43:25;100744.41;;;52.53;4.59
49423;BME280;36998;51.974;20.150;2022-09-06T13:46:11;100737.03;;;53.32;5.05
49423;BME280;36998;51.974;20.150;2022-09-06T13:48:36;100749.88;;;53.84;4.34
49423;BME280;36998;51.974;20.150;2022-09-06T13:51:07;100748.16;;;54.02;4.63